createdAt,value
2022-09-11T00:08:03.224Z,1.10
2022-09-11T00:18:17.855Z,0.77
2022-09-11T00:28:25.708Z,1.00
2022-09-11T00:38:31.906Z,1.63
2022-09-11T00:48:36.432Z,0.77
2022-09-11T00:58:43.313Z,0.65
2022-09-11T01:08:45.389Z,0.60
2022-09-11T01:19:01.577Z,0.50
2022-09-11T01:29:25.151Z,0.77
2022-09-11T01:39:36.126Z,0.70
2022-09-11T01:49:48.173Z,0.70
2022-09-11T01:59:57.256Z,0.70
2022-09-11T02:10:14.600Z,0.80
2022-09-11T02:20:17.556Z,0.80
2022-09-11T02:30:20.900Z,0.80
2022-09-11T02:41:01.683Z,0.75
2022-09-11T02:51:20.733Z,0.70
2022-09-11T03:01:24.160Z,1.40
2022-09-11T03:11:25.700Z,1.92
2022-09-11T03:21:29.754Z,0.50
2022-09-11T03:31:34.432Z,1.13
2022-09-11T03:41:38.856Z,2.13
2022-09-11T03:51:40.581Z,0.50
2022-09-11T04:01:42.267Z,0.43
2022-09-11T04:11:43.943Z,0.77
2022-09-11T04:21:49.503Z,0.50
2022-09-11T04:31:51.675Z,0.45
2022-09-11T04:41:54.606Z,0.57
2022-09-11T04:52:03.045Z,0.52
2022-09-11T05:02:08.096Z,0.70
2022-09-11T05:12:10.749Z,0.80
2022-09-11T05:22:13.179Z,0.70
2022-09-11T05:32:14.887Z,0.90
2022-09-11T05:42:16.546Z,3.60
2022-09-11T05:52:18.224Z,0.73
2022-09-11T06:02:25.027Z,0.80
2022-09-11T06:12:28.434Z,0.60
2022-09-11T06:22:33.623Z,0.75
2022-09-11T06:32:35.285Z,0.70
2022-09-11T06:42:37.879Z,0.70
2022-09-11T06:52:39.470Z,0.65
2022-09-11T07:02:41.046Z,0.70
2022-09-11T07:12:43.638Z,0.70
2022-09-11T07:22:46.776Z,1.08
2022-09-11T07:32:49.976Z,0.80
2022-09-11T07:42:51.643Z,0.63
2022-09-11T08:02:59.740Z,2.83
2022-09-11T08:13:12.140Z,0.60
2022-09-11T08:23:16.567Z,0.50
2022-09-11T08:33:19.454Z,0.95
2022-09-11T08:43:32.531Z,0.68
2022-09-11T08:53:35.538Z,0.75
2022-09-11T09:03:37.795Z,0.57
2022-09-11T09:14:14.905Z,0.50
2022-09-11T09:24:20.748Z,0.70
2022-09-11T09:34:26.693Z,0.82
2022-09-11T09:44:41.605Z,0.65
2022-09-11T09:55:01.830Z,0.50
2022-09-11T10:05:18.404Z,0.53
2022-09-11T10:15:23.530Z,0.30
2022-09-11T10:25:27.574Z,0.43
2022-09-11T10:35:31.253Z,0.85
2022-09-11T10:45:33.981Z,0.85
2022-09-11T10:55:46.460Z,0.82
2022-09-11T11:06:09.903Z,0.60
2022-09-11T11:16:20.362Z,0.65
2022-09-11T11:26:29.522Z,0.80
2022-09-11T11:36:38.908Z,0.60
2022-09-11T11:46:49.183Z,3.28
2022-09-11T11:56:57.123Z,1.50
2022-09-11T12:07:03.453Z,0.90
2022-09-11T12:17:25.428Z,0.85
2022-09-11T12:27:35.729Z,0.52
2022-09-11T12:37:39.104Z,0.40
2022-09-11T12:47:41.905Z,0.57
2022-09-11T12:57:43.534Z,0.50
2022-09-11T13:08:00.079Z,0.80
2022-09-11T13:18:02.483Z,0.70
2022-09-11T13:28:07.021Z,1.10
2022-09-11T13:38:18.525Z,0.52
2022-09-11T13:48:24.399Z,0.55
2022-09-11T13:58:32.790Z,0.35
2022-09-11T14:08:35.480Z,0.55
2022-09-11T14:18:42.570Z,0.20
2022-09-11T14:28:49.511Z,1.73
2022-09-11T14:38:51.255Z,0.60
2022-09-11T14:48:53.046Z,0.50
2022-09-11T14:59:01.022Z,3.63
2022-09-11T15:09:04.046Z,1.15
2022-09-11T15:19:05.888Z,1.25
2022-09-11T15:39:45.602Z,3.47
2022-09-11T15:49:50.650Z,0.85
2022-09-11T15:59:52.358Z,0.57
2022-09-11T16:09:54.435Z,0.50
2022-09-11T16:19:58.874Z,0.90
2022-09-11T16:40:22.202Z,0.80
2022-09-11T16:50:24.791Z,1.10
2022-09-11T17:00:27.056Z,1.00
2022-09-11T17:10:28.868Z,1.70
2022-09-11T17:20:31.487Z,0.80
2022-09-11T17:30:37.488Z,0.80
2022-09-11T17:40:39.568Z,0.80
2022-09-11T17:50:41.432Z,1.00
2022-09-11T18:00:44.305Z,1.20
2022-09-11T18:11:00.827Z,1.55
2022-09-11T18:21:09.471Z,1.25
2022-09-11T18:31:11.906Z,1.10
2022-09-11T18:41:16.365Z,2.40
2022-09-11T18:51:20.383Z,2.03
2022-09-11T19:01:26.064Z,1.60
2022-09-11T19:11:30.441Z,2.10
2022-09-11T19:21:34.678Z,2.33
2022-09-11T19:31:39.581Z,3.55
2022-09-11T19:41:41.819Z,2.53
2022-09-11T19:51:56.910Z,1.80
2022-09-11T20:02:00.394Z,2.05
2022-09-11T20:12:04.808Z,1.95
2022-09-11T20:22:07.821Z,2.10
2022-09-11T20:32:13.452Z,2.58
2022-09-11T20:42:15.079Z,2.22
2022-09-11T20:52:17.745Z,2.67
2022-09-11T21:02:19.821Z,2.50
2022-09-11T21:12:21.516Z,2.47
2022-09-11T21:22:23.499Z,3.83
2022-09-11T21:32:26.170Z,3.40
2022-09-11T21:42:27.989Z,3.17
2022-09-11T21:52:30.682Z,3.37
2022-09-11T22:02:32.487Z,3.55
2022-09-11T22:12:36.898Z,3.63
2022-09-11T22:22:41.555Z,4.43
2022-09-11T22:32:47.297Z,4.97
2022-09-11T22:42:50.021Z,5.20
2022-09-11T22:52:54.753Z,5.18
2022-09-11T23:02:56.495Z,5.22
2022-09-11T23:12:59.238Z,5.70
2022-09-11T23:23:06.212Z,4.93
2022-09-11T23:33:11.406Z,5.07
2022-09-11T23:43:12.991Z,4.43
2022-09-11T23:53:14.581Z,5.10
